Voidomatis — A8FX2 — position and weather

sailwx.info

Track history (hours):
 
Tides and Currents Weather Stations Pressure Air Temp Water Temp Dewpoint Dewpoint Depression Visibility Wind Speed Wind Dir Waves Ship Positions

Voidomatis

Last reported at 2016-Jun-20 03:33 UTC. Time now 2016-Jun-25 03:39 UTC.
Position N 40°25' W 070°09'.

Length 214 m; draft 7.8 m.

Type: Tanker. MMSI: 636012508.

Date/timePositionNaut miles runAvg speedWind from/ knotsBaromVisibWave heightAir tempDewpointWater temp
2016-Jun-20 03:33N 40°25' W 070°09'5413.5
2016-Jun-19 23:33N 40°24' W 071°20'1313.4
2016-Jun-19 22:33N 40°23' W 071°38'1313.3
2016-Jun-19 21:33N 40°23' W 071°55'2913.4
2016-Jun-19 19:22N 40°22' W 072°34'5513.3
2016-Jun-19 15:15N 40°26' W 073°45'24 8.7
2016-Jun-19 12:31N 40°33' W 074°15'5 4.7
2016-Jun-19 11:33N 40°37' W 074°12'1 0.0
2016-Jun-18 11:33N 40°38' W 074°12'5 5.0
2016-Jun-18 10:33N 40°39' W 074°05'6 5.9
2016-Jun-18 09:33N 40°34' W 074°02'9 9.3
2016-Jun-18 08:33N 40°28' W 073°52'7 7.1
2016-Jun-18 07:33N 40°29' W 073°43'2 2.1
2016-Jun-18 06:33N 40°30' W 073°40'0 0.0
2016-Jun-18 05:33N 40°30' W 073°40'0 0.0
2016-Jun-18 04:27N 40°30' W 073°40'0 0.0
2016-Jun-18 03:30N 40°30' W 073°40'0 0.0
2016-Jun-18 02:21N 40°30' W 073°40'0 0.0
2016-Jun-17 22:03N 40°30' W 073°40'0 0.0
2016-Jun-17 20:21N 40°30' W 073°40'0 0.0
2016-Jun-17 19:33N 40°30' W 073°40'0 0.0
2016-Jun-17 18:33N 40°30' W 073°41'0 0.0
2016-Jun-17 13:21N 40°30' W 073°40'0 0.0
2016-Jun-17 12:03N 40°30' W 073°40'0 0.0
2016-Jun-17 11:21N 40°30' W 073°40'0 0.0
2016-Jun-17 10:33N 40°30' W 073°40'0 0.0
2016-Jun-17 09:24N 40°30' W 073°40'0 0.0
2016-Jun-17 08:33N 40°30' W 073°40'0 0.0
2016-Jun-17 07:30N 40°30' W 073°40'0 0.0
2016-Jun-17 06:33N 40°30' W 073°40'0 0.0
2016-Jun-17 05:30N 40°30' W 073°40'0 0.1
2016-Jun-17 04:31N 40°30' W 073°40'0 0.0
2016-Jun-17 03:27N 40°30' W 073°40'0 0.0
2016-Jun-17 02:33N 40°30' W 073°40'0 0.0
2016-Jun-17 00:33N 40°30' W 073°40'0 0.0
2016-Jun-16 20:18N 40°30' W 073°40'0 0.0
2016-Jun-16 19:33N 40°30' W 073°40'0 0.0
2016-Jun-16 18:15N 40°30' W 073°40'0 0.0
2016-Jun-16 17:24N 40°30' W 073°40'0 0.1
2016-Jun-16 16:21N 40°30' W 073°40'0 0.0
2016-Jun-16 03:06N 40°30' W 073°40'0 0.0
2016-Jun-15 21:30N 40°30' W 073°40'0 0.0
2016-Jun-15 20:30N 40°30' W 073°40'0 0.0
2016-Jun-15 19:33N 40°30' W 073°40'0 0.0
2016-Jun-15 09:03N 40°30' W 073°40'0 0.0
2016-Jun-15 08:33N 40°30' W 073°40'0 0.0
2016-Jun-15 07:33N 40°30' W 073°40'0 0.0
2016-Jun-15 06:33N 40°30' W 073°40'0 0.0
2016-Jun-14 20:24N 40°30' W 073°40'0 0.0
2016-Jun-14 18:03N 40°30' W 073°40'0 0.0
2016-Jun-14 17:33N 40°30' W 073°40'0 0.0
2016-Jun-14 16:33N 40°30' W 073°40'0 0.0
2016-Jun-14 15:27N 40°30' W 073°40'0 0.0
2016-Jun-14 08:06N 40°30' W 073°40'0 0.0
2016-Jun-14 07:33N 40°30' W 073°40'0 0.0
2016-Jun-12 22:21N 40°30' W 073°40'1 0.1
2016-Jun-12 02:33N 40°30' W 073°42'9 8.7
2016-Jun-12 01:33N 40°29' W 073°53'1111.3
2016-Jun-12 00:33N 40°37' W 074°03'1 0.9
2016-Jun-11 23:31N 40°38' W 074°03'0 0.0
2016-Jun-11 22:31N 40°38' W 074°03'0 0.0
2016-Jun-11 21:31N 40°38' W 074°03'0 0.2
2016-Jun-11 20:31N 40°38' W 074°03'0 0.2
2016-Jun-11 19:31N 40°38' W 074°03'0 0.0
2016-Jun-11 18:31N 40°38' W 074°03'0 0.0
2016-Jun-11 17:31N 40°38' W 074°03'0 0.0
2016-Jun-11 16:31N 40°38' W 074°03'0 0.1
2016-Jun-11 15:31N 40°38' W 074°03'0 0.0
2016-Jun-11 14:31N 40°38' W 074°03'0 0.2
2016-Jun-11 13:31N 40°38' W 074°03'0 0.0
2016-Jun-11 12:28N 40°38' W 074°03'0 0.0
2016-Jun-11 11:31N 40°38' W 074°03'0 0.0
2016-Jun-11 10:28N 40°38' W 074°03'0 0.1
2016-Jun-11 09:31N 40°38' W 074°03'0 0.0
2016-Jun-11 08:28N 40°38' W 074°03'0 0.3
2016-Jun-11 07:28N 40°38' W 074°03'0 0.0
2016-Jun-11 06:31N 40°38' W 074°03'0 0.0
2016-Jun-11 05:31N 40°38' W 074°03'0 0.0
2016-Jun-11 04:31N 40°38' W 074°03'0 0.0
2016-Jun-11 03:31N 40°38' W 074°03'0 0.1
2016-Jun-11 02:31N 40°38' W 074°03'0 0.2
2016-Jun-11 01:31N 40°38' W 074°03'0 0.1
2016-Jun-11 00:31N 40°38' W 074°03'0 0.0
2016-Jun-10 23:31N 40°38' W 074°03'0 0.0
2016-Jun-10 22:31N 40°38' W 074°03'0 0.0
2016-Jun-10 21:31N 40°38' W 074°03'0 0.0
2016-Jun-10 20:28N 40°38' W 074°03'0 0.0
2016-Jun-10 19:31N 40°38' W 074°03'0 0.2
2016-Jun-10 18:31N 40°38' W 074°03'0 0.1
2016-Jun-10 17:31N 40°38' W 074°03'0 0.0
2016-Jun-10 16:28N 40°38' W 074°03'0 0.0
2016-Jun-10 15:28N 40°38' W 074°03'0 0.1
2016-Jun-10 14:33N 40°38' W 074°03'0 0.0
2016-Jun-10 13:33N 40°38' W 074°03'0 0.2
2016-Jun-10 12:33N 40°38' W 074°03'3 3.3
2016-Jun-10 11:33N 40°35' W 074°02'8 7.4
2016-Jun-10 10:31N 40°29' W 073°55'  
Track history (hours):
 
Tides and Currents Weather Stations Pressure Air Temp Water Temp Dewpoint Dewpoint Depression Visibility Wind Speed Wind Dir Waves Ship Positions

Voidomatis

Last reported at 2016-Jun-20 03:33 UTC. Time now 2016-Jun-25 03:39 UTC.
Position N 40°25' W 070°09'.

Length 214 m; draft 7.8 m.

Type: Tanker. MMSI: 636012508.

Date/timePositionNaut miles runAvg speedWind from/ knotsBaromVisibWave heightAir tempDewpointWater temp
2016-Jun-20 03:33N 40°25' W 070°09'5413.5
2016-Jun-19 23:33N 40°24' W 071°20'1313.4
2016-Jun-19 22:33N 40°23' W 071°38'1313.3
2016-Jun-19 21:33N 40°23' W 071°55'2913.4
2016-Jun-19 19:22N 40°22' W 072°34'5513.3
2016-Jun-19 15:15N 40°26' W 073°45'24 8.7
2016-Jun-19 12:31N 40°33' W 074°15'5 4.7
2016-Jun-19 11:33N 40°37' W 074°12'1 0.0
2016-Jun-18 11:33N 40°38' W 074°12'5 5.0
2016-Jun-18 10:33N 40°39' W 074°05'6 5.9
2016-Jun-18 09:33N 40°34' W 074°02'9 9.3
2016-Jun-18 08:33N 40°28' W 073°52'7 7.1
2016-Jun-18 07:33N 40°29' W 073°43'2 2.1
2016-Jun-18 06:33N 40°30' W 073°40'0 0.0
2016-Jun-18 05:33N 40°30' W 073°40'0 0.0
2016-Jun-18 04:27N 40°30' W 073°40'0 0.0
2016-Jun-18 03:30N 40°30' W 073°40'0 0.0
2016-Jun-18 02:21N 40°30' W 073°40'0 0.0
2016-Jun-17 22:03N 40°30' W 073°40'0 0.0
2016-Jun-17 20:21N 40°30' W 073°40'0 0.0
2016-Jun-17 19:33N 40°30' W 073°40'0 0.0
2016-Jun-17 18:33N 40°30' W 073°41'0 0.0
2016-Jun-17 13:21N 40°30' W 073°40'0 0.0
2016-Jun-17 12:03N 40°30' W 073°40'0 0.0
2016-Jun-17 11:21N 40°30' W 073°40'0 0.0
2016-Jun-17 10:33N 40°30' W 073°40'0 0.0
2016-Jun-17 09:24N 40°30' W 073°40'0 0.0
2016-Jun-17 08:33N 40°30' W 073°40'0 0.0
2016-Jun-17 07:30N 40°30' W 073°40'0 0.0
2016-Jun-17 06:33N 40°30' W 073°40'0 0.0
2016-Jun-17 05:30N 40°30' W 073°40'0 0.1
2016-Jun-17 04:31N 40°30' W 073°40'0 0.0
2016-Jun-17 03:27N 40°30' W 073°40'0 0.0
2016-Jun-17 02:33N 40°30' W 073°40'0 0.0
2016-Jun-17 00:33N 40°30' W 073°40'0 0.0
2016-Jun-16 20:18N 40°30' W 073°40'0 0.0
2016-Jun-16 19:33N 40°30' W 073°40'0 0.0
2016-Jun-16 18:15N 40°30' W 073°40'0 0.0
2016-Jun-16 17:24N 40°30' W 073°40'0 0.1
2016-Jun-16 16:21N 40°30' W 073°40'0 0.0
2016-Jun-16 03:06N 40°30' W 073°40'0 0.0
2016-Jun-15 21:30N 40°30' W 073°40'0 0.0
2016-Jun-15 20:30N 40°30' W 073°40'0 0.0
2016-Jun-15 19:33N 40°30' W 073°40'0 0.0
2016-Jun-15 09:03N 40°30' W 073°40'0 0.0
2016-Jun-15 08:33N 40°30' W 073°40'0 0.0
2016-Jun-15 07:33N 40°30' W 073°40'0 0.0
2016-Jun-15 06:33N 40°30' W 073°40'0 0.0
2016-Jun-14 20:24N 40°30' W 073°40'0 0.0
2016-Jun-14 18:03N 40°30' W 073°40'0 0.0
2016-Jun-14 17:33N 40°30' W 073°40'0 0.0
2016-Jun-14 16:33N 40°30' W 073°40'0 0.0
2016-Jun-14 15:27N 40°30' W 073°40'0 0.0
2016-Jun-14 08:06N 40°30' W 073°40'0 0.0
2016-Jun-14 07:33N 40°30' W 073°40'0 0.0
2016-Jun-12 22:21N 40°30' W 073°40'1 0.1
2016-Jun-12 02:33N 40°30' W 073°42'9 8.7
2016-Jun-12 01:33N 40°29' W 073°53'1111.3
2016-Jun-12 00:33N 40°37' W 074°03'1 0.9
2016-Jun-11 23:31N 40°38' W 074°03'0 0.0
2016-Jun-11 22:31N 40°38' W 074°03'0 0.0
2016-Jun-11 21:31N 40°38' W 074°03'0 0.2
2016-Jun-11 20:31N 40°38' W 074°03'0 0.2
2016-Jun-11 19:31N 40°38' W 074°03'0 0.0
2016-Jun-11 18:31N 40°38' W 074°03'0 0.0
2016-Jun-11 17:31N 40°38' W 074°03'0 0.0
2016-Jun-11 16:31N 40°38' W 074°03'0 0.1
2016-Jun-11 15:31N 40°38' W 074°03'0 0.0
2016-Jun-11 14:31N 40°38' W 074°03'0 0.2
2016-Jun-11 13:31N 40°38' W 074°03'0 0.0
2016-Jun-11 12:28N 40°38' W 074°03'0 0.0
2016-Jun-11 11:31N 40°38' W 074°03'0 0.0
2016-Jun-11 10:28N 40°38' W 074°03'0 0.1
2016-Jun-11 09:31N 40°38' W 074°03'0 0.0
2016-Jun-11 08:28N 40°38' W 074°03'0 0.3
2016-Jun-11 07:28N 40°38' W 074°03'0 0.0
2016-Jun-11 06:31N 40°38' W 074°03'0 0.0
2016-Jun-11 05:31N 40°38' W 074°03'0 0.0
2016-Jun-11 04:31N 40°38' W 074°03'0 0.0
2016-Jun-11 03:31N 40°38' W 074°03'0 0.1
2016-Jun-11 02:31N 40°38' W 074°03'0 0.2
2016-Jun-11 01:31N 40°38' W 074°03'0 0.1
2016-Jun-11 00:31N 40°38' W 074°03'0 0.0
2016-Jun-10 23:31N 40°38' W 074°03'0 0.0
2016-Jun-10 22:31N 40°38' W 074°03'0 0.0
2016-Jun-10 21:31N 40°38' W 074°03'0 0.0
2016-Jun-10 20:28N 40°38' W 074°03'0 0.0
2016-Jun-10 19:31N 40°38' W 074°03'0 0.2
2016-Jun-10 18:31N 40°38' W 074°03'0 0.1
2016-Jun-10 17:31N 40°38' W 074°03'0 0.0
2016-Jun-10 16:28N 40°38' W 074°03'0 0.0
2016-Jun-10 15:28N 40°38' W 074°03'0 0.1
2016-Jun-10 14:33N 40°38' W 074°03'0 0.0
2016-Jun-10 13:33N 40°38' W 074°03'0 0.2
2016-Jun-10 12:33N 40°38' W 074°03'3 3.3
2016-Jun-10 11:33N 40°35' W 074°02'8 7.4
2016-Jun-10 10:31N 40°29' W 073°55'  

Dump ship's entire track history